Terminal Aerodrome Forecast
Issued by NWS

Home | Current Version | Previous Version | Text Only | Print | Product List | Glossary On
Versions: 1 2 3 4 5 6 7 8 9 10 11 12 13 14 15 16 17 18
000
FTUS42 KTAE 310525
TAFVLD
TAF
KVLD 310525Z 3106/0106 00000KT P6SM SCT080 BKN250
     FM311000 00000KT 3SM BR SCT002
     FM311400 20004KT P6SM BKN025
     FM312000 18006KT P6SM VCTS BKN040CB
     FM010100 VRB03KT P6SM SCT030 BKN100=

USA.gov is the U.S. government's official web portal to all federal, state and local government web resources and services.